sensor_id;sensor_type;location;lat;lon;timestamp;temperature;humidity
19033;DHT22;9649;51.042;13.804;2023-12-28T00:00:28;7.00;22.40
19033;DHT22;9649;51.042;13.804;2023-12-28T00:05:40;6.90;99.90
19033;DHT22;9649;51.042;13.804;2023-12-28T00:11:01;7.00;1.00
19033;DHT22;9649;51.042;13.804;2023-12-28T00:16:30;7.00;1.00
19033;DHT22;9649;51.042;13.804;2023-12-28T00:21:40;6.90;1.00
19033;DHT22;9649;51.042;13.804;2023-12-28T00:27:00;6.80;1.00
19033;DHT22;9649;51.042;13.804;2023-12-28T00:38:01;6.90;1.00
19033;DHT22;9649;51.042;13.804;2023-12-28T00:43:38;7.00;99.90
19033;DHT22;9649;51.042;13.804;2023-12-28T00:48:52;7.10;1.00
19033;DHT22;9649;51.042;13.804;2023-12-28T00:54:11;7.00;1.00
19033;DHT22;9649;51.042;13.804;2023-12-28T00:59:35;7.10;1.00
19033;DHT22;9649;51.042;13.804;2023-12-28T01:05:06;7.30;1.00
19033;DHT22;9649;51.042;13.804;2023-12-28T01:10:32;7.30;99.90
19033;DHT22;9649;51.042;13.804;2023-12-28T01:15:49;7.40;1.00
19033;DHT22;9649;51.042;13.804;2023-12-28T01:21:09;7.40;1.00
19033;DHT22;9649;51.042;13.804;2023-12-28T01:26:28;7.40;1.00
19033;DHT22;9649;51.042;13.804;2023-12-28T01:31:43;7.30;1.00
19033;DHT22;9649;51.042;13.804;2023-12-28T01:37:04;7.00;1.00
19033;DHT22;9649;51.042;13.804;2023-12-28T01:42:24;6.60;1.00
19033;DHT22;9649;51.042;13.804;2023-12-28T01:47:39;6.30;1.00
19033;DHT22;9649;51.042;13.804;2023-12-28T01:52:54;6.60;1.00
19033;DHT22;9649;51.042;13.804;2023-12-28T01:58:06;6.60;99.90
19033;DHT22;9649;51.042;13.804;2023-12-28T02:03:21;6.30;1.00
19033;DHT22;9649;51.042;13.804;2023-12-28T02:08:40;6.00;1.00
19033;DHT22;9649;51.042;13.804;2023-12-28T02:14:10;5.80;99.90
19033;DHT22;9649;51.042;13.804;2023-12-28T02:19:32;6.40;99.90
19033;DHT22;9649;51.042;13.804;2023-12-28T02:25:08;6.70;1.00
19033;DHT22;9649;51.042;13.804;2023-12-28T02:30:21;6.60;99.90
19033;DHT22;9649;51.042;13.804;2023-12-28T02:35:44;6.40;99.90
19033;DHT22;9649;51.042;13.804;2023-12-28T02:40:55;6.40;1.00
19033;DHT22;9649;51.042;13.804;2023-12-28T02:46:19;6.60;1.00
19033;DHT22;9649;51.042;13.804;2023-12-28T02:51:31;6.50;1.00
19033;DHT22;9649;51.042;13.804;2023-12-28T02:56:53;6.50;1.00
19033;DHT22;9649;51.042;13.804;2023-12-28T03:02:29;6.50;1.00
19033;DHT22;9649;51.042;13.804;2023-12-28T03:07:42;6.20;1.00
19033;DHT22;9649;51.042;13.804;2023-12-28T03:13:09;6.00;99.90
19033;DHT22;9649;51.042;13.804;2023-12-28T03:18:22;5.90;98.90
19033;DHT22;9649;51.042;13.804;2023-12-28T03:23:50;5.70;1.00
19033;DHT22;9649;51.042;13.804;2023-12-28T03:29:06;5.80;1.00
19033;DHT22;9649;51.042;13.804;2023-12-28T03:34:18;5.70;99.90
19033;DHT22;9649;51.042;13.804;2023-12-28T03:39:48;5.60;99.90
19033;DHT22;9649;51.042;13.804;2023-12-28T03:45:11;5.50;99.90
19033;DHT22;9649;51.042;13.804;2023-12-28T03:50:27;5.70;1.00
19033;DHT22;9649;51.042;13.804;2023-12-28T03:55:51;6.10;1.00
19033;DHT22;9649;51.042;13.804;2023-12-28T04:01:02;6.60;99.90
19033;DHT22;9649;51.042;13.804;2023-12-28T04:06:05;6.90;99.90
19033;DHT22;9649;51.042;13.804;2023-12-28T04:11:08;7.00;1.00
19033;DHT22;9649;51.042;13.804;2023-12-28T04:16:13;7.10;99.90
19033;DHT22;9649;51.042;13.804;2023-12-28T04:21:16;7.10;1.00
19033;DHT22;9649;51.042;13.804;2023-12-28T04:26:19;7.30;1.00
19033;DHT22;9649;51.042;13.804;2023-12-28T04:31:24;7.40;1.00
19033;DHT22;9649;51.042;13.804;2023-12-28T04:36:28;7.70;99.90
19033;DHT22;9649;51.042;13.804;2023-12-28T04:41:31;8.00;99.90
19033;DHT22;9649;51.042;13.804;2023-12-28T04:46:38;8.40;1.00
19033;DHT22;9649;51.042;13.804;2023-12-28T04:51:44;8.40;1.00
19033;DHT22;9649;51.042;13.804;2023-12-28T04:56:47;8.70;1.00
19033;DHT22;9649;51.042;13.804;2023-12-28T05:01:51;8.90;1.00
19033;DHT22;9649;51.042;13.804;2023-12-28T05:06:53;9.20;1.00
19033;DHT22;9649;51.042;13.804;2023-12-28T05:11:56;9.50;1.00
19033;DHT22;9649;51.042;13.804;2023-12-28T05:17:00;9.50;1.00
19033;DHT22;9649;51.042;13.804;2023-12-28T05:22:03;9.70;1.00
19033;DHT22;9649;51.042;13.804;2023-12-28T05:27:08;9.80;1.00
19033;DHT22;9649;51.042;13.804;2023-12-28T05:32:12;9.80;1.00
19033;DHT22;9649;51.042;13.804;2023-12-28T05:37:15;9.80;1.00
19033;DHT22;9649;51.042;13.804;2023-12-28T05:42:17;9.80;1.00
19033;DHT22;9649;51.042;13.804;2023-12-28T05:47:21;9.80;1.00
19033;DHT22;9649;51.042;13.804;2023-12-28T05:52:25;9.90;1.00
19033;DHT22;9649;51.042;13.804;2023-12-28T05:57:28;9.90;1.00
19033;DHT22;9649;51.042;13.804;2023-12-28T06:02:33;9.80;1.00
19033;DHT22;9649;51.042;13.804;2023-12-28T06:07:37;9.70;1.00
19033;DHT22;9649;51.042;13.804;2023-12-28T06:12:39;9.50;1.00
19033;DHT22;9649;51.042;13.804;2023-12-28T06:17:43;9.40;1.00
19033;DHT22;9649;51.042;13.804;2023-12-28T06:22:46;9.40;1.00
19033;DHT22;9649;51.042;13.804;2023-12-28T06:27:50;9.30;1.00
19033;DHT22;9649;51.042;13.804;2023-12-28T06:32:55;9.30;1.00
19033;DHT22;9649;51.042;13.804;2023-12-28T06:37:58;9.20;69.60
19033;DHT22;9649;51.042;13.804;2023-12-28T06:43:01;9.30;1.00
19033;DHT22;9649;51.042;13.804;2023-12-28T06:48:05;9.30;1.00
19033;DHT22;9649;51.042;13.804;2023-12-28T06:53:08;9.30;78.70
19033;DHT22;9649;51.042;13.804;2023-12-28T06:58:11;9.30;99.90
19033;DHT22;9649;51.042;13.804;2023-12-28T07:03:17;9.20;99.90
19033;DHT22;9649;51.042;13.804;2023-12-28T07:08:20;9.30;1.00
19033;DHT22;9649;51.042;13.804;2023-12-28T07:13:23;9.20;1.00
19033;DHT22;9649;51.042;13.804;2023-12-28T07:18:27;9.20;1.00
19033;DHT22;9649;51.042;13.804;2023-12-28T07:23:31;9.10;1.00
19033;DHT22;9649;51.042;13.804;2023-12-28T07:28:33;9.00;99.90
19033;DHT22;9649;51.042;13.804;2023-12-28T07:33:37;9.50;99.90
19033;DHT22;9649;51.042;13.804;2023-12-28T07:38:40;9.80;99.90
19033;DHT22;9649;51.042;13.804;2023-12-28T07:43:43;10.00;1.00
19033;DHT22;9649;51.042;13.804;2023-12-28T07:48:47;9.90;17.00
19033;DHT22;9649;51.042;13.804;2023-12-28T07:53:50;9.90;99.90
19033;DHT22;9649;51.042;13.804;2023-12-28T07:58:55;9.90;99.90
19033;DHT22;9649;51.042;13.804;2023-12-28T08:04:00;10.00;99.90
19033;DHT22;9649;51.042;13.804;2023-12-28T08:09:03;10.30;1.00
19033;DHT22;9649;51.042;13.804;2023-12-28T08:14:06;10.50;1.00
19033;DHT22;9649;51.042;13.804;2023-12-28T08:19:11;10.90;1.00
19033;DHT22;9649;51.042;13.804;2023-12-28T08:24:14;11.10;1.00
19033;DHT22;9649;51.042;13.804;2023-12-28T08:29:18;11.20;1.00
19033;DHT22;9649;51.042;13.804;2023-12-28T08:34:22;11.20;1.00
19033;DHT22;9649;51.042;13.804;2023-12-28T08:39:25;11.30;1.00
19033;DHT22;9649;51.042;13.804;2023-12-28T08:44:30;11.40;1.00
19033;DHT22;9649;51.042;13.804;2023-12-28T08:49:35;11.50;1.00
19033;DHT22;9649;51.042;13.804;2023-12-28T08:54:39;11.50;1.00
19033;DHT22;9649;51.042;13.804;2023-12-28T08:59:42;11.40;1.00
19033;DHT22;9649;51.042;13.804;2023-12-28T09:04:46;11.50;1.00
19033;DHT22;9649;51.042;13.804;2023-12-28T09:09:49;11.50;1.00
19033;DHT22;9649;51.042;13.804;2023-12-28T09:14:52;11.70;1.00
19033;DHT22;9649;51.042;13.804;2023-12-28T09:19:56;11.70;1.00
19033;DHT22;9649;51.042;13.804;2023-12-28T09:25:00;11.80;1.00
19033;DHT22;9649;51.042;13.804;2023-12-28T09:30:03;11.90;1.00
19033;DHT22;9649;51.042;13.804;2023-12-28T09:35:08;12.00;1.00
19033;DHT22;9649;51.042;13.804;2023-12-28T09:40:14;12.00;1.00
19033;DHT22;9649;51.042;13.804;2023-12-28T09:45:18;12.00;99.90
19033;DHT22;9649;51.042;13.804;2023-12-28T09:50:23;12.10;99.90
19033;DHT22;9649;51.042;13.804;2023-12-28T09:55:28;12.20;99.90
19033;DHT22;9649;51.042;13.804;2023-12-28T10:00:31;12.10;99.90
19033;DHT22;9649;51.042;13.804;2023-12-28T10:05:35;12.10;99.90
19033;DHT22;9649;51.042;13.804;2023-12-28T10:10:38;12.00;99.90
19033;DHT22;9649;51.042;13.804;2023-12-28T10:15:42;11.90;99.90
19033;DHT22;9649;51.042;13.804;2023-12-28T10:20:50;11.80;99.90
19033;DHT22;9649;51.042;13.804;2023-12-28T10:25:56;11.70;1.00
19033;DHT22;9649;51.042;13.804;2023-12-28T10:30:59;11.60;1.00
19033;DHT22;9649;51.042;13.804;2023-12-28T10:36:06;11.70;1.00
19033;DHT22;9649;51.042;13.804;2023-12-28T10:41:10;11.60;1.00
19033;DHT22;9649;51.042;13.804;2023-12-28T10:46:22;11.70;99.90
19033;DHT22;9649;51.042;13.804;2023-12-28T10:51:28;11.70;99.90
19033;DHT22;9649;51.042;13.804;2023-12-28T10:56:35;11.70;1.00
19033;DHT22;9649;51.042;13.804;2023-12-28T11:01:40;11.80;99.90
19033;DHT22;9649;51.042;13.804;2023-12-28T11:06:49;12.00;99.90
19033;DHT22;9649;51.042;13.804;2023-12-28T11:11:55;12.00;24.90
19033;DHT22;9649;51.042;13.804;2023-12-28T11:17:04;12.10;53.90
19033;DHT22;9649;51.042;13.804;2023-12-28T11:22:10;12.20;69.70
19033;DHT22;9649;51.042;13.804;2023-12-28T11:27:15;12.30;1.00
19033;DHT22;9649;51.042;13.804;2023-12-28T11:32:19;12.60;1.00
19033;DHT22;9649;51.042;13.804;2023-12-28T11:37:24;12.90;1.00
19033;DHT22;9649;51.042;13.804;2023-12-28T11:42:30;13.20;1.00
19033;DHT22;9649;51.042;13.804;2023-12-28T11:47:33;13.50;1.00
19033;DHT22;9649;51.042;13.804;2023-12-28T11:52:37;14.10;1.00
19033;DHT22;9649;51.042;13.804;2023-12-28T11:57:43;14.90;1.00
19033;DHT22;9649;51.042;13.804;2023-12-28T12:02:46;15.80;1.00
19033;DHT22;9649;51.042;13.804;2023-12-28T12:07:51;16.30;1.00
19033;DHT22;9649;51.042;13.804;2023-12-28T12:12:53;16.00;1.00
19033;DHT22;9649;51.042;13.804;2023-12-28T12:17:56;16.00;1.00
19033;DHT22;9649;51.042;13.804;2023-12-28T12:23:00;16.90;1.00
19033;DHT22;9649;51.042;13.804;2023-12-28T12:28:04;18.70;1.00
19033;DHT22;9649;51.042;13.804;2023-12-28T12:33:07;19.70;1.00
19033;DHT22;9649;51.042;13.804;2023-12-28T12:38:12;19.20;99.90
19033;DHT22;9649;51.042;13.804;2023-12-28T12:43:16;20.20;99.90
19033;DHT22;9649;51.042;13.804;2023-12-28T12:48:21;19.10;99.90
19033;DHT22;9649;51.042;13.804;2023-12-28T12:53:25;17.60;99.90
19033;DHT22;9649;51.042;13.804;2023-12-28T12:58:34;16.30;99.90
19033;DHT22;9649;51.042;13.804;2023-12-28T13:03:39;16.20;1.00
19033;DHT22;9649;51.042;13.804;2023-12-28T13:08:43;17.30;1.00
19033;DHT22;9649;51.042;13.804;2023-12-28T13:13:46;16.80;1.00
19033;DHT22;9649;51.042;13.804;2023-12-28T13:18:49;16.20;1.00
19033;DHT22;9649;51.042;13.804;2023-12-28T13:23:53;15.90;1.00
19033;DHT22;9649;51.042;13.804;2023-12-28T13:28:56;15.90;1.00
19033;DHT22;9649;51.042;13.804;2023-12-28T13:33:59;15.70;1.00
19033;DHT22;9649;51.042;13.804;2023-12-28T13:39:03;14.60;1.00
19033;DHT22;9649;51.042;13.804;2023-12-28T13:44:06;13.80;1.00
19033;DHT22;9649;51.042;13.804;2023-12-28T13:49:13;13.20;1.00
19033;DHT22;9649;51.042;13.804;2023-12-28T13:54:20;12.70;1.00
19033;DHT22;9649;51.042;13.804;2023-12-28T13:59:23;12.40;1.00
19033;DHT22;9649;51.042;13.804;2023-12-28T14:04:26;12.00;1.00
19033;DHT22;9649;51.042;13.804;2023-12-28T14:09:33;11.80;38.50
19033;DHT22;9649;51.042;13.804;2023-12-28T14:14:37;11.70;92.00
19033;DHT22;9649;51.042;13.804;2023-12-28T14:19:40;11.50;99.90
19033;DHT22;9649;51.042;13.804;2023-12-28T14:24:45;11.20;99.90
19033;DHT22;9649;51.042;13.804;2023-12-28T14:29:49;11.00;99.90
19033;DHT22;9649;51.042;13.804;2023-12-28T14:34:52;10.80;1.00
19033;DHT22;9649;51.042;13.804;2023-12-28T14:39:57;10.80;1.00
19033;DHT22;9649;51.042;13.804;2023-12-28T14:45:00;10.70;1.00
19033;DHT22;9649;51.042;13.804;2023-12-28T14:50:05;10.70;1.00
19033;DHT22;9649;51.042;13.804;2023-12-28T14:55:09;10.50;1.00
19033;DHT22;9649;51.042;13.804;2023-12-28T15:00:26;10.30;1.00
19033;DHT22;9649;51.042;13.804;2023-12-28T15:05:33;10.00;99.90
19033;DHT22;9649;51.042;13.804;2023-12-28T15:10:54;9.80;99.90
19033;DHT22;9649;51.042;13.804;2023-12-28T15:16:00;9.70;1.00
19033;DHT22;9649;51.042;13.804;2023-12-28T15:21:19;9.50;1.00
19033;DHT22;9649;51.042;13.804;2023-12-28T15:26:30;9.40;1.00
19033;DHT22;9649;51.042;13.804;2023-12-28T15:31:33;9.30;1.00
19033;DHT22;9649;51.042;13.804;2023-12-28T15:36:36;8.80;1.00
19033;DHT22;9649;51.042;13.804;2023-12-28T15:41:42;8.40;1.00
19033;DHT22;9649;51.042;13.804;2023-12-28T15:46:48;8.30;99.90
19033;DHT22;9649;51.042;13.804;2023-12-28T15:51:50;8.30;99.90
19033;DHT22;9649;51.042;13.804;2023-12-28T15:56:54;7.90;1.00
19033;DHT22;9649;51.042;13.804;2023-12-28T16:01:57;7.80;99.90
19033;DHT22;9649;51.042;13.804;2023-12-28T16:07:03;7.50;1.00
19033;DHT22;9649;51.042;13.804;2023-12-28T16:12:10;7.20;1.00
19033;DHT22;9649;51.042;13.804;2023-12-28T16:17:14;7.10;1.00
19033;DHT22;9649;51.042;13.804;2023-12-28T16:22:20;7.00;99.90
19033;DHT22;9649;51.042;13.804;2023-12-28T16:27:24;6.80;99.90
19033;DHT22;9649;51.042;13.804;2023-12-28T16:32:27;6.90;99.90
19033;DHT22;9649;51.042;13.804;2023-12-28T16:37:29;6.90;1.00
19033;DHT22;9649;51.042;13.804;2023-12-28T16:42:34;7.10;1.00
19033;DHT22;9649;51.042;13.804;2023-12-28T16:47:37;7.30;1.00
19033;DHT22;9649;51.042;13.804;2023-12-28T16:52:40;7.10;1.00
19033;DHT22;9649;51.042;13.804;2023-12-28T16:57:44;6.80;1.00
19033;DHT22;9649;51.042;13.804;2023-12-28T17:02:46;6.70;99.90
19033;DHT22;9649;51.042;13.804;2023-12-28T17:07:49;6.70;99.90
19033;DHT22;9649;51.042;13.804;2023-12-28T17:12:54;7.10;1.00
19033;DHT22;9649;51.042;13.804;2023-12-28T17:17:57;7.30;1.00
19033;DHT22;9649;51.042;13.804;2023-12-28T17:23:07;7.40;1.00
19033;DHT22;9649;51.042;13.804;2023-12-28T17:28:14;7.40;1.00
19033;DHT22;9649;51.042;13.804;2023-12-28T17:33:20;7.20;1.00
19033;DHT22;9649;51.042;13.804;2023-12-28T17:38:24;6.90;1.00
19033;DHT22;9649;51.042;13.804;2023-12-28T17:43:36;6.90;40.90
19033;DHT22;9649;51.042;13.804;2023-12-28T17:48:48;6.50;99.90
19033;DHT22;9649;51.042;13.804;2023-12-28T17:53:55;6.30;1.00
19033;DHT22;9649;51.042;13.804;2023-12-28T17:58:59;6.20;58.30
19033;DHT22;9649;51.042;13.804;2023-12-28T18:04:02;6.20;99.90
19033;DHT22;9649;51.042;13.804;2023-12-28T18:09:05;6.60;1.00
19033;DHT22;9649;51.042;13.804;2023-12-28T18:14:09;7.30;1.00
19033;DHT22;9649;51.042;13.804;2023-12-28T18:19:11;7.60;1.00
19033;DHT22;9649;51.042;13.804;2023-12-28T18:24:15;7.40;1.00
19033;DHT22;9649;51.042;13.804;2023-12-28T18:29:19;7.30;1.00
19033;DHT22;9649;51.042;13.804;2023-12-28T18:34:21;7.20;1.00
19033;DHT22;9649;51.042;13.804;2023-12-28T18:39:24;6.90;1.00
19033;DHT22;9649;51.042;13.804;2023-12-28T18:44:30;6.60;99.90
19033;DHT22;9649;51.042;13.804;2023-12-28T18:49:35;6.60;1.00
19033;DHT22;9649;51.042;13.804;2023-12-28T18:54:38;6.80;99.90
19033;DHT22;9649;51.042;13.804;2023-12-28T18:59:42;7.10;1.00
19033;DHT22;9649;51.042;13.804;2023-12-28T19:04:45;7.20;99.90
19033;DHT22;9649;51.042;13.804;2023-12-28T19:09:48;7.00;31.30
19033;DHT22;9649;51.042;13.804;2023-12-28T19:14:52;6.60;1.00
19033;DHT22;9649;51.042;13.804;2023-12-28T19:19:57;6.50;99.90
19033;DHT22;9649;51.042;13.804;2023-12-28T19:25:00;6.30;1.00
19033;DHT22;9649;51.042;13.804;2023-12-28T19:30:05;6.20;1.00
19033;DHT22;9649;51.042;13.804;2023-12-28T19:35:08;6.50;1.00
19033;DHT22;9649;51.042;13.804;2023-12-28T19:40:14;6.40;1.00
19033;DHT22;9649;51.042;13.804;2023-12-28T19:45:18;6.30;1.00
19033;DHT22;9649;51.042;13.804;2023-12-28T19:50:21;6.30;1.00
19033;DHT22;9649;51.042;13.804;2023-12-28T19:55:24;6.50;1.00
19033;DHT22;9649;51.042;13.804;2023-12-28T20:00:28;6.70;1.00
19033;DHT22;9649;51.042;13.804;2023-12-28T20:05:32;6.60;1.00
19033;DHT22;9649;51.042;13.804;2023-12-28T20:10:35;7.00;1.00
19033;DHT22;9649;51.042;13.804;2023-12-28T20:15:39;7.20;1.00
19033;DHT22;9649;51.042;13.804;2023-12-28T20:20:43;7.40;99.90
19033;DHT22;9649;51.042;13.804;2023-12-28T20:25:46;7.60;99.90
19033;DHT22;9649;51.042;13.804;2023-12-28T20:30:50;7.60;99.90
19033;DHT22;9649;51.042;13.804;2023-12-28T20:35:53;7.60;99.90
19033;DHT22;9649;51.042;13.804;2023-12-28T20:40:55;7.40;1.00
19033;DHT22;9649;51.042;13.804;2023-12-28T20:46:00;7.50;99.90
19033;DHT22;9649;51.042;13.804;2023-12-28T20:51:03;7.70;99.90
19033;DHT22;9649;51.042;13.804;2023-12-28T20:56:06;7.70;99.90
19033;DHT22;9649;51.042;13.804;2023-12-28T21:01:10;7.70;99.90
19033;DHT22;9649;51.042;13.804;2023-12-28T21:06:13;7.80;99.90
19033;DHT22;9649;51.042;13.804;2023-12-28T21:11:16;8.00;1.00
19033;DHT22;9649;51.042;13.804;2023-12-28T21:16:20;7.90;1.00
19033;DHT22;9649;51.042;13.804;2023-12-28T21:21:24;7.90;99.90
19033;DHT22;9649;51.042;13.804;2023-12-28T21:26:28;8.00;21.40
19033;DHT22;9649;51.042;13.804;2023-12-28T21:31:32;7.70;99.90
19033;DHT22;9649;51.042;13.804;2023-12-28T21:36:35;7.60;99.90
19033;DHT22;9649;51.042;13.804;2023-12-28T21:41:38;7.30;1.00
19033;DHT22;9649;51.042;13.804;2023-12-28T21:46:42;7.00;1.00
19033;DHT22;9649;51.042;13.804;2023-12-28T21:51:45;6.90;1.00
19033;DHT22;9649;51.042;13.804;2023-12-28T21:56:48;7.10;1.00
19033;DHT22;9649;51.042;13.804;2023-12-28T22:01:52;7.10;1.00
19033;DHT22;9649;51.042;13.804;2023-12-28T22:06:55;6.90;1.00
19033;DHT22;9649;51.042;13.804;2023-12-28T22:11:58;6.50;1.00
19033;DHT22;9649;51.042;13.804;2023-12-28T22:17:02;6.30;1.00
19033;DHT22;9649;51.042;13.804;2023-12-28T22:22:05;6.20;1.00
19033;DHT22;9649;51.042;13.804;2023-12-28T22:27:08;6.20;1.00
19033;DHT22;9649;51.042;13.804;2023-12-28T22:32:12;6.10;1.00
19033;DHT22;9649;51.042;13.804;2023-12-28T22:37:15;6.20;1.00
19033;DHT22;9649;51.042;13.804;2023-12-28T22:42:18;6.20;1.00
19033;DHT22;9649;51.042;13.804;2023-12-28T22:47:23;6.20;1.00
19033;DHT22;9649;51.042;13.804;2023-12-28T22:52:27;6.40;1.00
19033;DHT22;9649;51.042;13.804;2023-12-28T22:57:32;6.20;1.00
19033;DHT22;9649;51.042;13.804;2023-12-28T23:02:36;6.00;1.00
19033;DHT22;9649;51.042;13.804;2023-12-28T23:07:39;5.90;1.00
19033;DHT22;9649;51.042;13.804;2023-12-28T23:12:43;6.30;1.00
19033;DHT22;9649;51.042;13.804;2023-12-28T23:17:47;6.40;1.00
19033;DHT22;9649;51.042;13.804;2023-12-28T23:22:53;6.40;1.00
19033;DHT22;9649;51.042;13.804;2023-12-28T23:27:56;6.40;99.90
19033;DHT22;9649;51.042;13.804;2023-12-28T23:33:01;6.60;1.00
19033;DHT22;9649;51.042;13.804;2023-12-28T23:38:03;6.50;19.80
19033;DHT22;9649;51.042;13.804;2023-12-28T23:43:06;6.60;27.90
19033;DHT22;9649;51.042;13.804;2023-12-28T23:48:10;6.70;1.00
19033;DHT22;9649;51.042;13.804;2023-12-28T23:53:13;7.30;1.00
19033;DHT22;9649;51.042;13.804;2023-12-28T23:58:16;7.10;99.90
